Time,TemperatureF,DewpointF,PressureIn,WindDirection,WindDirectionDegrees,WindSpeedMPH,WindSpeedGustMPH,Humidity,HourlyPrecipIn,Conditions,Clouds,dailyrainin,SoftwareType,DateUTC
2013-04-17 00:03:00,52.3,51.8,30.12,WSW,243,0.0,0.0,98,0.00,,,0.00,Wunderground v.1.15,2013-04-17 04:03:00,
2013-04-17 00:08:00,52.2,51.7,30.12,WSW,243,0.0,2.0,98,0.00,,,0.00,Wunderground v.1.15,2013-04-17 04:08:00,
2013-04-17 00:13:00,52.2,51.7,30.12,WSW,244,0.0,0.0,98,0.00,,,0.00,Wunderground v.1.15,2013-04-17 04:13:00,
2013-04-17 00:23:00,52.2,51.7,30.11,WSW,244,0.0,0.0,98,0.00,,,0.00,Wunderground v.1.15,2013-04-17 04:23:00,
2013-04-17 00:33:00,52.3,51.8,30.11,WSW,244,0.0,0.0,98,0.00,,,0.00,Wunderground v.1.15,2013-04-17 04:33:00,
2013-04-17 00:38:00,52.4,51.9,30.11,WSW,244,0.0,0.0,98,0.00,,,0.00,Wunderground v.1.15,2013-04-17 04:38:00,
2013-04-17 00:43:00,52.4,51.9,30.11,WSW,244,0.0,0.0,98,0.00,,,0.00,Wunderground v.1.15,2013-04-17 04:43:00,
2013-04-17 00:48:00,52.6,52.3,30.12,WSW,244,0.0,1.0,99,0.00,,,0.00,Wunderground v.1.15,2013-04-17 04:48:00,
2013-04-17 00:53:00,52.7,52.2,30.12,WSW,244,0.0,0.0,98,0.00,,,0.00,Wunderground v.1.15,2013-04-17 04:53:00,
2013-04-17 00:58:00,52.7,52.2,30.12,WSW,244,0.0,0.0,98,0.00,,,0.00,Wunderground v.1.15,2013-04-17 04:58:00,
2013-04-17 01:08:00,52.9,52.4,30.12,WSW,244,0.0,0.0,98,0.00,,,0.00,Wunderground v.1.15,2013-04-17 05:08:00,
2013-04-17 01:13:00,53.0,52.5,30.11,WSW,244,0.0,0.0,98,0.00,,,0.00,Wunderground v.1.15,2013-04-17 05:13:00,
2013-04-17 01:18:00,53.0,52.5,30.11,WSW,244,0.0,0.0,98,0.00,,,0.00,Wunderground v.1.15,2013-04-17 05:18:00,
2013-04-17 01:23:00,53.0,52.5,30.12,WSW,244,0.0,0.0,98,0.00,,,0.00,Wunderground v.1.15,2013-04-17 05:23:00,
2013-04-17 01:28:00,53.1,52.6,30.12,WSW,243,0.0,0.0,98,0.00,,,0.00,Wunderground v.1.15,2013-04-17 05:28:00,
2013-04-17 01:38:00,53.1,52.6,30.11,WSW,242,0.0,0.0,98,0.00,,,0.00,Wunderground v.1.15,2013-04-17 05:38:00,
2013-04-17 01:43:00,53.0,52.5,30.11,WSW,244,0.0,0.0,98,0.00,,,0.00,Wunderground v.1.15,2013-04-17 05:43:00,
2013-04-17 01:48:00,53.0,52.5,30.11,WSW,244,0.0,0.0,98,0.00,,,0.00,Wunderground v.1.15,2013-04-17 05:48:00,
2013-04-17 01:57:00,53.0,53.0,30.11,WSW,244,0.0,-999.0,98,-99.99,,,0.00,weatherlink.com 1.10,2013-04-17 05:57:00,
2013-04-17 02:03:00,53.0,52.5,30.11,WSW,244,0.0,0.0,98,0.00,,,0.00,Wunderground v.1.15,2013-04-17 06:03:00,
2013-04-17 02:08:00,52.9,52.4,30.11,WSW,244,0.0,0.0,98,0.00,,,0.00,Wunderground v.1.15,2013-04-17 06:08:00,
2013-04-17 02:13:00,52.9,52.4,30.11,WSW,244,0.0,0.0,98,0.00,,,0.00,Wunderground v.1.15,2013-04-17 06:13:00,
2013-04-17 02:23:00,53.0,52.5,30.11,WSW,244,0.0,0.0,98,0.00,,,0.00,Wunderground v.1.15,2013-04-17 06:23:00,
2013-04-17 02:28:00,53.0,52.5,30.11,WSW,244,0.0,0.0,98,0.00,,,0.00,Wunderground v.1.15,2013-04-17 06:28:00,
2013-04-17 02:38:00,53.0,52.5,30.10,WSW,244,0.0,0.0,98,0.00,,,0.00,Wunderground v.1.15,2013-04-17 06:38:00,
2013-04-17 02:43:00,53.0,52.5,30.10,WSW,244,0.0,0.0,98,0.00,,,0.00,Wunderground v.1.15,2013-04-17 06:43:00,
2013-04-17 02:48:00,53.1,52.6,30.11,WSW,244,0.0,0.0,98,0.00,,,0.00,Wunderground v.1.15,2013-04-17 06:48:00,
2013-04-17 02:53:00,53.2,52.9,30.11,WSW,244,0.0,0.0,99,0.00,,,0.00,Wunderground v.1.15,2013-04-17 06:53:00,
2013-04-17 02:58:00,53.2,52.7,30.10,WSW,243,0.0,0.0,98,0.00,,,0.00,Wunderground v.1.15,2013-04-17 06:58:00,
2013-04-17 03:08:00,53.4,52.8,30.11,WSW,244,0.0,0.0,98,0.00,,,0.00,Wunderground v.1.15,2013-04-17 07:08:00,
2013-04-17 03:13:00,53.5,52.9,30.10,WSW,244,0.0,0.0,98,0.00,,,0.00,Wunderground v.1.15,2013-04-17 07:13:00,
2013-04-17 03:18:00,53.6,53.0,30.11,WSW,244,0.0,0.0,98,0.00,,,0.00,Wunderground v.1.15,2013-04-17 07:18:00,
2013-04-17 03:27:00,53.8,53.0,30.11,WSW,244,0.0,-999.0,98,-99.99,,,0.00,weatherlink.com 1.10,2013-04-17 07:27:00,
2013-04-17 03:33:00,54.1,53.5,30.11,WSW,244,0.0,0.0,98,0.00,,,0.00,Wunderground v.1.15,2013-04-17 07:33:00,
2013-04-17 03:38:00,54.3,54.0,30.11,WSW,242,0.0,0.0,99,0.00,,,0.00,Wunderground v.1.15,2013-04-17 07:38:00,
2013-04-17 03:44:00,54.6,54.0,30.11,WSW,244,0.0,-999.0,98,-99.99,,,0.00,weatherlink.com 1.10,2013-04-17 07:44:00,
2013-04-17 03:53:00,55.0,54.4,30.10,WNW,290,0.0,0.0,98,0.00,,,0.00,Wunderground v.1.15,2013-04-17 07:53:00,
2013-04-17 03:58:00,55.1,54.5,30.11,WNW,290,0.0,0.0,98,0.00,,,0.00,Wunderground v.1.15,2013-04-17 07:58:00,
2013-04-17 04:03:00,55.0,54.2,30.10,WNW,290,0.0,0.0,97,0.00,,,0.00,Wunderground v.1.15,2013-04-17 08:03:00,
2013-04-17 04:13:00,55.2,54.6,30.11,WNW,294,0.0,0.0,98,0.00,,,0.00,Wunderground v.1.15,2013-04-17 08:13:00,
2013-04-17 04:18:00,55.3,54.7,30.11,WNW,298,0.0,0.0,98,0.00,,,0.00,Wunderground v.1.15,2013-04-17 08:18:00,
2013-04-17 04:23:00,55.4,54.8,30.11,North,360,0.0,0.0,98,0.00,,,0.00,Wunderground v.1.15,2013-04-17 08:23:00,
2013-04-17 04:29:00,55.3,55.0,30.11,East,80,4.0,-999.0,98,-99.99,,,0.00,weatherlink.com 1.10,2013-04-17 08:29:00,
2013-04-17 04:44:00,52.4,51.0,30.12,ENE,65,4.0,-999.0,94,-99.99,,,0.00,weatherlink.com 1.10,2013-04-17 08:44:00,
2013-04-17 04:59:00,51.0,49.0,30.12,ENE,57,2.0,-999.0,94,-99.99,,,0.00,weatherlink.com 1.10,2013-04-17 08:59:00,
2013-04-17 05:14:00,50.5,49.0,30.13,ENE,57,0.0,-999.0,93,-99.99,,,0.00,weatherlink.com 1.10,2013-04-17 09:14:00,
2013-04-17 05:29:00,50.3,48.0,30.13,NE,53,0.0,-999.0,93,-99.99,,,0.00,weatherlink.com 1.10,2013-04-17 09:29:00,
2013-04-17 05:44:00,50.3,48.0,30.12,NE,45,3.0,-999.0,90,-99.99,,,0.00,weatherlink.com 1.10,2013-04-17 09:44:00,
2013-04-17 05:59:00,50.3,46.0,30.12,NE,50,1.0,-999.0,86,-99.99,,,0.00,weatherlink.com 1.10,2013-04-17 09:59:00,
2013-04-17 06:14:00,50.3,45.0,30.13,NNE,24,1.0,-999.0,83,-99.99,,,0.00,weatherlink.com 1.10,2013-04-17 10:14:00,
2013-04-17 06:29:00,50.2,45.0,30.13,NNE,15,0.0,-999.0,82,-99.99,,,0.00,weatherlink.com 1.10,2013-04-17 10:29:00,
2013-04-17 06:44:00,50.1,45.0,30.14,NE,48,0.0,-999.0,81,-99.99,,,0.00,weatherlink.com 1.10,2013-04-17 10:44:00,
2013-04-17 06:59:00,49.9,45.0,30.15,NE,48,0.0,-999.0,82,-99.99,,,0.00,weatherlink.com 1.10,2013-04-17 10:59:00,
2013-04-17 07:14:00,49.7,44.0,30.15,NE,55,2.0,-999.0,82,-99.99,,,0.00,weatherlink.com 1.10,2013-04-17 11:14:00,
2013-04-17 07:29:00,50.0,45.0,30.17,North,5,3.0,-999.0,82,-99.99,,,0.00,weatherlink.com 1.10,2013-04-17 11:29:00,
2013-04-17 07:44:00,50.3,43.0,30.18,West,272,10.0,-999.0,77,-99.99,,,0.00,weatherlink.com 1.10,2013-04-17 11:44:00,
2013-04-17 07:59:00,50.2,41.0,30.19,ENE,59,2.0,-999.0,72,-99.99,,,0.00,weatherlink.com 1.10,2013-04-17 11:59:00,
2013-04-17 08:14:00,50.3,41.0,30.19,NNE,26,0.0,-999.0,71,-99.99,,,0.00,weatherlink.com 1.10,2013-04-17 12:14:00,
2013-04-17 08:29:00,50.6,41.0,30.20,NE,44,4.0,-999.0,69,-99.99,,,0.00,weatherlink.com 1.10,2013-04-17 12:29:00,
2013-04-17 08:44:00,51.5,40.0,30.20,NE,49,0.0,-999.0,64,-99.99,,,0.00,weatherlink.com 1.10,2013-04-17 12:44:00,
2013-04-17 09:00:00,52.1,40.0,30.20,NE,40,3.0,-999.0,63,-99.99,,,0.00,weatherlink.com 1.10,2013-04-17 13:00:00,
2013-04-17 09:15:00,53.1,40.0,30.21,NE,49,0.0,-999.0,61,-99.99,,,0.00,weatherlink.com 1.10,2013-04-17 13:15:00,
2013-04-17 09:30:00,53.4,40.0,30.21,NE,47,1.0,-999.0,62,-99.99,,,0.00,weatherlink.com 1.10,2013-04-17 13:30:00,
2013-04-17 09:45:00,53.9,41.0,30.21,NNW,338,5.0,-999.0,61,-99.99,,,0.00,weatherlink.com 1.10,2013-04-17 13:45:00,
2013-04-17 10:00:00,55.1,41.0,30.20,NNW,346,4.0,-999.0,60,-99.99,,,0.00,weatherlink.com 1.10,2013-04-17 14:00:00,
2013-04-17 10:15:00,55.3,41.0,30.21,NNW,346,3.0,-999.0,59,-99.99,,,0.00,weatherlink.com 1.10,2013-04-17 14:15:00,
2013-04-17 10:30:00,56.4,42.0,30.21,NNW,333,1.0,-999.0,58,-99.99,,,0.00,weatherlink.com 1.10,2013-04-17 14:30:00,
2013-04-17 10:45:00,56.3,41.0,30.21,NNE,17,8.0,-999.0,58,-99.99,,,0.00,weatherlink.com 1.10,2013-04-17 14:45:00,
2013-04-17 11:00:00,56.8,42.0,30.21,ENE,67,6.0,-999.0,59,-99.99,,,0.00,weatherlink.com 1.10,2013-04-17 15:00:00,
2013-04-17 11:15:00,57.6,42.0,30.21,ENE,69,6.0,-999.0,57,-99.99,,,0.00,weatherlink.com 1.10,2013-04-17 15:15:00,
2013-04-17 11:30:00,57.9,43.0,30.20,NW,305,0.0,-999.0,57,-99.99,,,0.00,weatherlink.com 1.10,2013-04-17 15:30:00,
2013-04-17 11:45:00,59.0,42.0,30.20,NE,48,5.0,-999.0,53,-99.99,,,0.00,weatherlink.com 1.10,2013-04-17 15:45:00,
2013-04-17 12:00:00,60.2,43.0,30.19,NE,49,4.0,-999.0,54,-99.99,,,0.00,weatherlink.com 1.10,2013-04-17 16:00:00,
2013-04-17 12:15:00,60.5,42.0,30.19,SSE,150,1.0,-999.0,51,-99.99,,,0.00,weatherlink.com 1.10,2013-04-17 16:15:00,
2013-04-17 12:30:00,60.0,42.0,30.19,NNW,329,4.0,-999.0,51,-99.99,,,0.00,weatherlink.com 1.10,2013-04-17 16:30:00,
2013-04-17 12:45:00,60.8,40.0,30.19,NNW,336,3.0,-999.0,47,-99.99,,,0.00,weatherlink.com 1.10,2013-04-17 16:45:00,
2013-04-17 13:00:00,61.6,42.0,30.19,NNW,346,6.0,-999.0,48,-99.99,,,0.00,weatherlink.com 1.10,2013-04-17 17:00:00,
2013-04-17 13:15:00,62.1,41.0,30.20,NNE,19,6.0,-999.0,46,-99.99,,,0.00,weatherlink.com 1.10,2013-04-17 17:15:00,
2013-04-17 13:30:00,62.2,40.0,30.19,NNW,339,6.0,-999.0,45,-99.99,,,0.00,weatherlink.com 1.10,2013-04-17 17:30:00,
2013-04-17 13:45:00,61.5,40.0,30.19,NE,55,4.0,-999.0,45,-99.99,,,0.00,weatherlink.com 1.10,2013-04-17 17:45:00,
2013-04-17 14:00:00,62.7,41.0,30.19,NW,306,2.0,-999.0,45,-99.99,,,0.00,weatherlink.com 1.10,2013-04-17 18:00:00,
2013-04-17 14:15:00,63.7,41.0,30.20,NNW,337,2.0,-999.0,44,-99.99,,,0.00,weatherlink.com 1.10,2013-04-17 18:15:00,
2013-04-17 14:30:00,63.7,40.0,30.20,North,360,1.0,-999.0,42,-99.99,,,0.00,weatherlink.com 1.10,2013-04-17 18:30:00,
2013-04-17 14:45:00,63.6,39.0,30.20,NE,51,0.0,-999.0,41,-99.99,,,0.00,weatherlink.com 1.10,2013-04-17 18:45:00,
2013-04-17 15:00:00,65.8,41.0,30.19,NW,323,2.0,-999.0,40,-99.99,,,0.00,weatherlink.com 1.10,2013-04-17 19:00:00,
2013-04-17 15:15:00,65.9,40.0,30.18,NNE,22,1.0,-999.0,39,-99.99,,,0.00,weatherlink.com 1.10,2013-04-17 19:15:00,
2013-04-17 15:30:00,65.4,41.0,30.19,NE,34,4.0,-999.0,41,-99.99,,,0.00,weatherlink.com 1.10,2013-04-17 19:30:00,
2013-04-17 15:45:00,64.8,40.0,30.20,NNW,336,0.0,-999.0,40,-99.99,,,0.00,weatherlink.com 1.10,2013-04-17 19:45:00,
2013-04-17 16:00:00,66.1,42.0,30.19,NE,56,5.0,-999.0,41,-99.99,,,0.00,weatherlink.com 1.10,2013-04-17 20:00:00,
2013-04-17 16:15:00,65.6,41.0,30.19,North,360,3.0,-999.0,40,-99.99,,,0.00,weatherlink.com 1.10,2013-04-17 20:15:00,
2013-04-17 16:30:00,65.6,41.0,30.19,NNE,15,0.0,-999.0,41,-99.99,,,0.00,weatherlink.com 1.10,2013-04-17 20:30:00,
2013-04-17 16:45:00,66.1,40.0,30.18,NNE,13,0.0,-999.0,39,-99.99,,,0.00,weatherlink.com 1.10,2013-04-17 20:45:00,
2013-04-17 17:00:00,65.3,40.0,30.19,ENE,60,0.0,-999.0,39,-99.99,,,0.00,weatherlink.com 1.10,2013-04-17 21:00:00,
2013-04-17 17:15:00,64.7,40.0,30.20,NE,55,1.0,-999.0,40,-99.99,,,0.00,weatherlink.com 1.10,2013-04-17 21:15:00,
2013-04-17 17:30:00,63.9,40.0,30.21,NE,40,1.0,-999.0,41,-99.99,,,0.00,weatherlink.com 1.10,2013-04-17 21:30:00,
2013-04-17 17:45:00,63.6,41.0,30.21,East,101,0.0,-999.0,43,-99.99,,,0.00,weatherlink.com 1.10,2013-04-17 21:45:00,
2013-04-17 18:00:00,63.7,39.0,30.21,NE,36,0.0,-999.0,41,-99.99,,,0.00,weatherlink.com 1.10,2013-04-17 22:00:00,
2013-04-17 18:15:00,63.3,40.0,30.21,NE,41,3.0,-999.0,42,-99.99,,,0.00,weatherlink.com 1.10,2013-04-17 22:15:00,
2013-04-17 18:30:00,62.9,39.0,30.21,NE,44,2.0,-999.0,42,-99.99,,,0.00,weatherlink.com 1.10,2013-04-17 22:30:00,
2013-04-17 18:45:00,62.4,39.0,30.23,NE,38,1.0,-999.0,42,-99.99,,,0.00,weatherlink.com 1.10,2013-04-17 22:45:00,
2013-04-17 19:00:00,62.0,39.0,30.23,NE,53,1.0,-999.0,43,-99.99,,,0.00,weatherlink.com 1.10,2013-04-17 23:00:00,
2013-04-17 19:15:00,60.9,39.0,30.23,ENE,57,1.0,-999.0,45,-99.99,,,0.00,weatherlink.com 1.10,2013-04-17 23:15:00,
2013-04-17 19:28:00,60.4,38.9,30.23,ENE,61,1.0,1.0,45,0.00,,,0.00,Wunderground v.1.15,2013-04-17 23:28:00,
2013-04-17 19:38:00,60.0,39.1,30.23,ENE,61,0.0,0.0,46,0.00,,,0.00,Wunderground v.1.15,2013-04-17 23:38:00,
2013-04-17 19:43:00,59.7,38.9,30.23,ENE,61,0.0,0.0,46,0.00,,,0.00,Wunderground v.1.15,2013-04-17 23:43:00,
2013-04-17 19:53:00,59.0,38.8,30.24,ENE,60,1.0,1.0,47,0.00,,,0.00,Wunderground v.1.15,2013-04-17 23:53:00,
2013-04-17 19:58:00,59.0,38.8,30.24,NE,48,1.0,3.0,47,0.00,,,0.00,Wunderground v.1.15,2013-04-17 23:58:00,
2013-04-17 20:03:00,59.0,38.8,30.24,NE,49,0.0,0.0,47,0.00,,,0.00,Wunderground v.1.15,2013-04-18 00:03:00,
2013-04-17 20:08:00,58.6,39.0,30.24,NE,49,0.0,0.0,48,0.00,,,0.00,Wunderground v.1.15,2013-04-18 00:08:00,
2013-04-17 20:16:00,58.1,38.0,30.24,NE,49,0.0,-999.0,48,-99.99,,,0.00,weatherlink.com 1.10,2013-04-18 00:16:00,
2013-04-17 20:23:00,57.7,38.7,30.24,NE,48,0.0,0.0,49,0.00,,,0.00,Wunderground v.1.15,2013-04-18 00:23:00,
2013-04-17 20:28:00,57.5,38.5,30.25,NE,49,0.0,0.0,49,0.00,,,0.00,Wunderground v.1.15,2013-04-18 00:28:00,
2013-04-17 20:38:00,57.0,38.5,30.25,NE,49,0.0,0.0,50,0.00,,,0.00,Wunderground v.1.15,2013-04-18 00:38:00,
2013-04-17 20:43:00,56.8,38.3,30.25,NE,49,0.0,0.0,50,0.00,,,0.00,Wunderground v.1.15,2013-04-18 00:43:00,
2013-04-17 20:48:00,56.6,38.2,30.25,NE,49,0.0,0.0,50,0.00,,,0.00,Wunderground v.1.15,2013-04-18 00:48:00,
2013-04-17 20:58:00,56.5,38.6,30.25,NE,48,0.0,0.0,51,0.00,,,0.00,Wunderground v.1.15,2013-04-18 00:58:00,
2013-04-17 21:03:00,56.1,38.7,30.25,NE,49,0.0,0.0,52,0.00,,,0.00,Wunderground v.1.15,2013-04-18 01:03:00,
2013-04-17 21:08:00,55.5,38.1,30.26,NE,48,0.0,0.0,52,0.00,,,0.00,Wunderground v.1.15,2013-04-18 01:08:00,
2013-04-17 21:13:00,55.2,37.9,30.26,NE,49,0.0,0.0,52,0.00,,,0.00,Wunderground v.1.15,2013-04-18 01:13:00,
2013-04-17 21:23:00,54.4,37.6,30.26,NE,49,0.0,0.0,53,0.00,,,0.00,Wunderground v.1.15,2013-04-18 01:23:00,
2013-04-17 21:28:00,54.2,37.4,30.27,NE,48,0.0,0.0,53,0.00,,,0.00,Wunderground v.1.15,2013-04-18 01:28:00,
2013-04-17 21:38:00,54.2,37.4,30.27,NE,49,0.0,1.0,53,0.00,,,0.00,Wunderground v.1.15,2013-04-18 01:38:00,
2013-04-17 21:43:00,54.4,37.6,30.27,NE,49,0.0,3.0,53,0.00,,,0.00,Wunderground v.1.15,2013-04-18 01:43:00,
2013-04-17 21:53:00,55.1,37.3,30.26,NE,49,2.0,2.0,51,0.00,,,0.00,Wunderground v.1.15,2013-04-18 01:53:00,
2013-04-17 21:58:00,55.3,38.0,30.27,NE,49,1.0,2.0,52,0.00,,,0.00,Wunderground v.1.15,2013-04-18 01:58:00,
2013-04-17 22:08:00,55.0,37.7,30.27,NE,49,0.0,1.0,52,0.00,,,0.00,Wunderground v.1.15,2013-04-18 02:08:00,
2013-04-17 22:13:00,54.9,37.6,30.27,NE,49,0.0,0.0,52,0.00,,,0.00,Wunderground v.1.15,2013-04-18 02:13:00,
2013-04-17 22:18:00,54.7,37.4,30.27,NE,49,0.0,0.0,52,0.00,,,0.00,Wunderground v.1.15,2013-04-18 02:18:00,
2013-04-17 22:32:00,54.3,37.0,30.26,NE,49,0.0,-999.0,53,-99.99,,,0.00,weatherlink.com 1.10,2013-04-18 02:32:00,
2013-04-17 22:38:00,54.2,37.4,30.26,NE,49,0.0,0.0,53,0.00,,,0.00,Wunderground v.1.15,2013-04-18 02:38:00,
2013-04-17 22:43:00,54.1,37.3,30.26,NE,52,0.0,0.0,53,0.00,,,0.00,Wunderground v.1.15,2013-04-18 02:43:00,
2013-04-17 22:48:00,54.0,37.2,30.26,NE,52,0.0,0.0,53,0.00,,,0.00,Wunderground v.1.15,2013-04-18 02:48:00,
2013-04-17 22:58:00,53.9,37.6,30.26,NE,52,0.0,0.0,54,0.00,,,0.00,Wunderground v.1.15,2013-04-18 02:58:00,
2013-04-17 23:03:00,53.6,37.8,30.26,ESE,106,0.0,2.0,55,0.00,,,0.00,Wunderground v.1.15,2013-04-18 03:03:00,
2013-04-17 23:08:00,53.5,37.7,30.26,ESE,105,0.0,2.0,55,0.00,,,0.00,Wunderground v.1.15,2013-04-18 03:08:00,
2013-04-17 23:18:00,53.3,37.5,30.26,ESE,105,0.0,0.0,55,0.00,,,0.00,Wunderground v.1.15,2013-04-18 03:18:00,
2013-04-17 23:23:00,53.2,37.4,30.26,ESE,105,0.0,1.0,55,0.00,,,0.00,Wunderground v.1.15,2013-04-18 03:23:00,
2013-04-17 23:28:00,53.3,37.5,30.26,ESE,105,0.0,1.0,55,0.00,,,0.00,Wunderground v.1.15,2013-04-18 03:28:00,
2013-04-17 23:34:00,53.4,37.0,30.27,ESE,105,2.0,-999.0,55,-99.99,,,0.00,weatherlink.com 1.10,2013-04-18 03:34:00,
2013-04-17 23:43:00,53.5,37.7,30.28,ESE,105,0.0,0.0,55,0.00,,,0.00,Wunderground v.1.15,2013-04-18 03:43:00,
2013-04-17 23:48:00,53.2,37.4,30.27,ESE,105,0.0,0.0,55,0.00,,,0.00,Wunderground v.1.15,2013-04-18 03:48:00,
2013-04-17 23:53:00,53.2,37.4,30.27,ESE,105,0.0,0.0,55,0.00,,,0.00,Wunderground v.1.15,2013-04-18 03:53:00,